KCSV

Crossville Memorial-Whitson Field Airport

Crossville, Tennessee, USA
METAR KCSV 161353Z AUTO 00000KT 8SM CLR M03/M06 A3022 RMK AO2 SLP253 T10281056
Observed Flight Rules
Dec-16 @ 13:53 UTC (an hour ago) Visual Flight Rules
Wind Visibility Clouds
Calm 8 miles
  • Clear skies
Temperatures Readings
Current -3°C / 27°F
Dewpoint -6°C / 21°F
Humidity 80%
Altimeter 30.22" Hg
Pressure 1025.3 hPa
Elevation 570
METAR KCSV 161353Z AUTO 00000KT 8SM CLR M03/M06 A3022 RMK AO2 SLP253 T10281056
Observed Flight Rules
Dec-16 @ 13:53 UTC
(an hour ago)
VFR
Wind Visibility
Calm 8 miles
Clouds
  • Clear skies
Temperature Dewpoint
-3°C / 27°F -6°C / 21°F
Humidity Altimeter Pressure
80% 30.22" Hg 1025.3 hPa